Search for airport 
image banner adimage banner adimage banner ad
image banner ad

KAUN - Auburn Muni

Located in Auburn, United States

ICAO - AUN, IATA - AUN

Data provided by Airmate  

General information

Coordinates: N38°57'17" W121°4'54"
Elevation is 1538 feet MSL.
Magnetic variation is 16° East
View others Airports in California

Operational data

Special qualification required
Current time UTC:
Current local time:
Weather
METAR: KAUN 291555Z AUTO 00000KT 5SM HZ CLR 30/11 A2998 RMK A01
View NOTAMs / SUP AIP / TFR affecting this airport [VIEW]
Communications frequencies: [VIEW]

Runways:

RWY identifierQFULength (ft)Width (ft)SurfaceLDA (ft)
0784°370075ASPH
25264°370075ASPH

Airport contact information

Address: Auburn United States

Other aviation service providers

Flight schools

Auburn Avionics

Auburn Avionics
tkpischel@yahoo.com+1(530)885-2642

Mach 5 Aviation, Inc.

Mach 5 Aviation, Inc.

Sunshine Flyers

Sunshine Flyers

Satellite view of KAUN